createdAt,value
2023-05-15T00:00:13.792Z,100664.27
2023-05-15T00:03:05.155Z,100656.55
2023-05-15T00:05:34.621Z,100654.92
2023-05-15T00:08:04.327Z,100659.11
2023-05-15T00:10:33.530Z,100664.83
2023-05-15T00:13:02.823Z,100667.66
2023-05-15T00:15:32.352Z,100664.64
2023-05-15T00:18:01.779Z,100660.41
2023-05-15T00:20:31.339Z,100658.98
2023-05-15T00:23:00.793Z,100661.50
2023-05-15T00:25:29.938Z,100657.92
2023-05-15T00:27:59.544Z,100651.97
2023-05-15T00:30:28.847Z,100649.30
2023-05-15T00:32:57.999Z,100647.35
2023-05-15T00:35:27.359Z,100641.86
2023-05-15T00:37:56.751Z,100630.57
2023-05-15T00:40:28.001Z,100629.39
2023-05-15T00:42:58.350Z,100637.30
2023-05-15T00:45:29.381Z,100637.28
2023-05-15T00:48:01.037Z,100629.00
2023-05-15T00:50:32.928Z,100619.47
2023-05-15T00:53:04.031Z,100610.05
2023-05-15T00:55:35.448Z,100606.05
2023-05-15T00:58:05.600Z,100604.29
2023-05-15T01:00:35.242Z,100603.80
2023-05-15T01:03:06.682Z,100594.92
2023-05-15T01:05:36.060Z,100586.25
2023-05-15T01:08:27.350Z,100587.20
2023-05-15T01:10:58.529Z,100579.48
2023-05-15T01:13:28.235Z,100580.66
2023-05-15T01:15:59.296Z,100589.88
2023-05-15T01:18:32.770Z,100594.16
2023-05-15T01:21:03.173Z,100578.98
2023-05-15T01:23:42.727Z,100573.95
2023-05-15T01:27:09.694Z,100562.56
2023-05-15T01:30:08.396Z,100556.00
2023-05-15T01:33:21.315Z,100563.14
2023-05-15T01:36:07.640Z,100561.19
2023-05-15T01:39:05.191Z,100561.95
2023-05-15T01:41:59.149Z,100569.69
2023-05-15T01:44:32.774Z,100566.70
2023-05-15T01:47:14.620Z,100572.73
2023-05-15T01:49:45.792Z,100578.65
2023-05-15T01:52:29.325Z,100590.66
2023-05-15T01:55:02.189Z,100598.27
2023-05-15T01:57:32.437Z,100593.30
2023-05-15T02:00:03.326Z,100597.65
2023-05-15T02:02:45.184Z,100596.58
2023-05-15T02:05:15.400Z,100596.30
2023-05-15T02:07:46.113Z,100600.92
2023-05-15T02:10:18.512Z,100603.23
2023-05-15T02:12:51.470Z,100589.48
2023-05-15T02:15:25.159Z,100578.30
2023-05-15T02:17:55.435Z,100564.98
2023-05-15T02:20:24.914Z,100565.34
2023-05-15T02:22:54.181Z,100562.71
2023-05-15T02:25:39.078Z,100565.28
2023-05-15T02:28:17.383Z,100575.30
2023-05-15T02:31:08.501Z,100583.08
2023-05-15T02:33:58.111Z,100591.45
2023-05-15T02:36:34.155Z,100594.48
2023-05-15T02:39:03.850Z,100600.20
2023-05-15T02:41:35.567Z,100596.66
2023-05-15T02:44:06.361Z,100598.78
2023-05-15T02:46:37.478Z,100598.67
2023-05-15T02:49:07.311Z,100601.67
2023-05-15T02:51:37.436Z,100602.23
2023-05-15T02:54:08.979Z,100597.90
2023-05-15T02:56:38.370Z,100599.33
2023-05-15T02:59:07.868Z,100598.54
2023-05-15T03:01:37.321Z,100591.73
2023-05-15T03:04:06.728Z,100588.11
2023-05-15T03:06:36.389Z,100590.90
2023-05-15T03:09:05.690Z,100585.27
2023-05-15T03:11:35.716Z,100573.64
2023-05-15T03:14:05.128Z,100564.20
2023-05-15T03:16:34.333Z,100572.63
2023-05-15T03:19:04.136Z,100574.82
2023-05-15T03:21:35.264Z,100571.64
2023-05-15T03:24:04.775Z,100562.80
2023-05-15T03:26:34.892Z,100556.96
2023-05-15T03:29:04.307Z,100559.19
2023-05-15T03:31:34.144Z,100571.13
2023-05-15T03:34:03.487Z,100581.28
2023-05-15T03:36:32.791Z,100591.32
2023-05-15T03:39:02.222Z,100585.70
2023-05-15T03:41:31.618Z,100576.73
2023-05-15T03:44:02.760Z,100568.34
2023-05-15T03:46:32.187Z,100560.20
2023-05-15T03:49:01.369Z,100554.55
2023-05-15T03:51:30.765Z,100550.02
2023-05-15T03:54:00.274Z,100547.09
2023-05-15T03:56:29.601Z,100551.00
2023-05-15T03:58:59.689Z,100556.03
2023-05-15T04:01:29.003Z,100560.83
2023-05-15T04:03:58.365Z,100564.11
2023-05-15T04:06:27.694Z,100558.52
2023-05-15T04:08:57.204Z,100555.19
2023-05-15T04:11:27.127Z,100549.98
2023-05-15T04:13:56.322Z,100547.59
2023-05-15T04:16:25.566Z,100545.07
2023-05-15T04:18:54.795Z,100540.08
2023-05-15T04:21:23.991Z,100537.65
2023-05-15T04:23:53.517Z,100542.38
2023-05-15T04:26:22.588Z,100539.35
2023-05-15T04:29:02.893Z,100531.14
2023-05-15T04:31:33.243Z,100537.42
2023-05-15T04:34:04.337Z,100548.13
2023-05-15T04:36:34.268Z,100564.14
2023-05-15T04:39:04.070Z,100571.19
2023-05-15T04:41:33.471Z,100578.41
2023-05-15T04:44:02.726Z,100582.20
2023-05-15T04:46:34.969Z,100582.55
2023-05-15T04:49:04.446Z,100584.23
2023-05-15T04:51:33.648Z,100583.72
2023-05-15T04:54:03.458Z,100591.04
2023-05-15T04:56:33.075Z,100593.73
2023-05-15T04:59:02.567Z,100589.23
2023-05-15T05:01:31.785Z,100586.04
2023-05-15T05:04:01.384Z,100585.62
2023-05-15T05:06:31.187Z,100588.70
2023-05-15T05:09:00.512Z,100590.31
2023-05-15T05:11:30.644Z,100587.52
2023-05-15T05:14:00.358Z,100586.94
2023-05-15T05:16:29.769Z,100584.27
2023-05-15T05:18:59.089Z,100584.56
2023-05-15T05:21:28.844Z,100583.91
2023-05-15T05:23:58.241Z,100581.75
2023-05-15T05:26:27.961Z,100578.19
2023-05-15T05:28:57.582Z,100572.58
2023-05-15T05:31:27.109Z,100576.27
2023-05-15T05:33:56.372Z,100583.17
2023-05-15T05:36:25.633Z,100579.05
2023-05-15T05:38:54.972Z,100581.97
2023-05-15T05:41:24.378Z,100583.55
2023-05-15T05:43:53.573Z,100582.02
2023-05-15T05:46:22.952Z,100582.23
2023-05-15T05:48:52.177Z,100585.52
2023-05-15T05:51:21.669Z,100588.80
2023-05-15T05:53:50.877Z,100593.20
2023-05-15T05:56:21.837Z,100596.37
2023-05-15T05:58:54.184Z,100601.30
2023-05-15T06:01:23.590Z,100607.44
2023-05-15T06:03:52.978Z,100617.91
2023-05-15T06:06:22.693Z,100617.65
2023-05-15T06:08:54.186Z,100616.59
2023-05-15T06:11:25.598Z,100612.21
2023-05-15T06:13:55.111Z,100605.72
2023-05-15T06:16:24.463Z,100606.05
2023-05-15T06:18:53.824Z,100603.39
2023-05-15T06:21:22.904Z,100607.13
2023-05-15T06:23:52.204Z,100611.26
2023-05-15T06:26:22.305Z,100616.59
2023-05-15T06:28:51.739Z,100613.09
2023-05-15T06:31:21.597Z,100609.88
2023-05-15T06:33:51.051Z,100602.13
2023-05-15T06:36:20.354Z,100600.04
2023-05-15T06:38:49.757Z,100594.90
2023-05-15T06:41:19.980Z,100600.05
2023-05-15T06:43:49.174Z,100582.52
2023-05-15T06:46:19.398Z,100573.61
2023-05-15T06:48:48.916Z,100566.67
2023-05-15T06:51:18.614Z,100557.71
2023-05-15T06:53:47.817Z,100554.44
2023-05-15T06:56:17.122Z,100554.67
2023-05-15T06:58:46.721Z,100551.62
2023-05-15T07:01:15.979Z,100547.45
2023-05-15T07:03:45.945Z,100545.52
2023-05-15T07:06:15.862Z,100552.93
2023-05-15T07:08:45.153Z,100554.70
2023-05-15T07:11:14.328Z,100555.95
2023-05-15T07:13:44.105Z,100543.63
2023-05-15T07:16:13.276Z,100538.41
2023-05-15T07:18:42.789Z,100542.33
2023-05-15T07:21:12.352Z,100540.19
2023-05-15T07:23:41.628Z,100547.69
2023-05-15T07:26:16.922Z,100555.66
2023-05-15T07:28:49.861Z,100557.45
2023-05-15T07:31:19.226Z,100560.29
2023-05-15T07:33:48.613Z,100565.30
2023-05-15T07:36:17.681Z,100568.09
2023-05-15T07:38:47.009Z,100565.04
2023-05-15T07:41:16.406Z,100559.55
2023-05-15T07:43:45.513Z,100552.20
2023-05-15T07:46:14.895Z,100546.67
2023-05-15T07:48:44.326Z,100544.71
2023-05-15T07:51:13.612Z,100545.33
2023-05-15T07:53:43.254Z,100551.05
2023-05-15T07:56:12.504Z,100562.66
2023-05-15T07:58:42.535Z,100561.89
2023-05-15T08:01:12.175Z,100553.10
2023-05-15T08:03:41.568Z,100546.84
2023-05-15T08:06:11.152Z,100548.42
2023-05-15T08:08:40.764Z,100559.89
2023-05-15T08:11:09.979Z,100567.31
2023-05-15T08:13:39.389Z,100564.36
2023-05-15T08:16:08.804Z,100556.45
2023-05-15T08:18:38.839Z,100552.08
2023-05-15T08:21:08.388Z,100550.05
2023-05-15T08:23:37.791Z,100548.27
2023-05-15T08:26:06.990Z,100547.36
2023-05-15T08:28:36.394Z,100553.11
2023-05-15T08:31:05.619Z,100551.16
2023-05-15T08:33:34.728Z,100548.52
2023-05-15T08:36:04.931Z,100538.73
2023-05-15T08:38:34.378Z,100535.05
2023-05-15T08:41:13.202Z,100530.58
2023-05-15T08:43:43.054Z,100535.90
2023-05-15T08:46:12.922Z,100530.44
2023-05-15T08:48:43.670Z,100533.79
2023-05-15T08:51:14.546Z,100531.89
2023-05-15T08:53:44.557Z,100524.93
2023-05-15T08:56:14.574Z,100521.23
2023-05-15T08:58:44.601Z,100521.58
2023-05-15T09:01:16.846Z,100513.61
2023-05-15T09:03:47.321Z,100508.61
2023-05-15T09:06:17.415Z,100498.09
2023-05-15T09:08:47.536Z,100493.30
2023-05-15T09:11:17.346Z,100485.87
2023-05-15T09:13:46.439Z,100477.08
2023-05-15T09:16:15.958Z,100489.23
2023-05-15T09:18:46.138Z,100499.38
2023-05-15T09:21:27.257Z,100497.07
2023-05-15T09:24:17.931Z,100491.16
2023-05-15T09:27:02.297Z,100488.89
2023-05-15T09:29:33.217Z,100494.27
2023-05-15T09:32:12.048Z,100493.95
2023-05-15T09:34:44.335Z,100494.41
2023-05-15T09:37:33.867Z,100495.10
2023-05-15T09:40:11.399Z,100491.95
2023-05-15T09:42:40.708Z,100494.40
2023-05-15T09:45:18.710Z,100497.81
2023-05-15T09:47:48.177Z,100503.63
2023-05-15T09:50:23.551Z,100498.25
2023-05-15T09:52:53.159Z,100493.22
2023-05-15T09:55:23.357Z,100489.98
2023-05-15T09:58:12.306Z,100481.61
2023-05-15T10:00:47.996Z,100479.33
2023-05-15T10:03:20.995Z,100486.73
2023-05-15T10:05:50.948Z,100487.20
2023-05-15T10:08:31.075Z,100481.40
2023-05-15T10:11:03.624Z,100478.89
2023-05-15T10:13:35.633Z,100474.25
2023-05-15T10:16:06.017Z,100466.91
2023-05-15T10:18:37.411Z,100465.86
2023-05-15T10:21:09.723Z,100461.87
2023-05-15T10:23:41.458Z,100461.51
2023-05-15T10:26:29.387Z,100464.59
2023-05-15T10:29:01.179Z,100466.82
2023-05-15T10:31:31.375Z,100460.04
2023-05-15T10:34:01.748Z,100456.41
2023-05-15T10:36:33.110Z,100453.77
2023-05-15T10:39:05.414Z,100457.16
2023-05-15T10:41:38.253Z,100451.55
2023-05-15T10:44:07.939Z,100447.20
2023-05-15T10:46:37.756Z,100443.38
2023-05-15T10:49:07.383Z,100438.45
2023-05-15T10:51:39.625Z,100430.08
2023-05-15T10:54:09.962Z,100424.88
2023-05-15T10:56:40.226Z,100424.45
2023-05-15T10:59:11.936Z,100421.48
2023-05-15T11:01:41.906Z,100416.78
2023-05-15T11:04:17.580Z,100411.23
2023-05-15T11:06:50.042Z,100413.92
2023-05-15T11:09:27.493Z,100415.59
2023-05-15T11:12:03.437Z,100417.89
2023-05-15T11:14:40.904Z,100424.55
2023-05-15T11:17:17.690Z,100430.61
2023-05-15T11:19:49.889Z,100429.19
2023-05-15T11:22:30.858Z,100433.56
2023-05-15T11:25:12.612Z,100435.34
2023-05-15T11:27:46.771Z,100434.90
2023-05-15T11:30:22.045Z,100436.95
2023-05-15T11:33:03.157Z,100435.91
2023-05-15T11:35:35.556Z,100438.02
2023-05-15T11:38:13.046Z,100432.07
2023-05-15T11:41:03.092Z,100432.24
2023-05-15T11:43:36.732Z,100433.14
2023-05-15T11:46:10.763Z,100441.30
2023-05-15T11:48:48.019Z,100434.48
2023-05-15T11:51:21.846Z,100435.23
2023-05-15T11:53:57.041Z,100435.94
2023-05-15T11:56:30.460Z,100435.80
2023-05-15T11:59:04.232Z,100439.68
2023-05-15T12:01:47.477Z,100438.80
2023-05-15T12:04:18.913Z,100437.59
2023-05-15T12:06:49.734Z,100428.99
2023-05-15T12:09:19.670Z,100426.66
2023-05-15T12:11:53.920Z,100423.69
2023-05-15T12:14:34.063Z,100421.21
2023-05-15T12:17:06.670Z,100422.89
2023-05-15T12:19:38.627Z,100412.25
2023-05-15T12:22:08.661Z,100414.39
2023-05-15T12:24:39.947Z,100407.48
2023-05-15T12:27:10.120Z,100403.27
2023-05-15T12:29:40.862Z,100404.43
2023-05-15T12:32:10.900Z,100410.02
2023-05-15T12:34:41.099Z,100407.01
2023-05-15T12:37:14.597Z,100413.11
2023-05-15T12:39:54.062Z,100408.34
2023-05-15T12:42:23.866Z,100407.52
2023-05-15T12:44:55.761Z,100409.88
2023-05-15T12:47:27.454Z,100413.24
2023-05-15T12:50:00.217Z,100413.52
2023-05-15T12:52:29.757Z,100408.05
2023-05-15T12:55:01.453Z,100408.73
2023-05-15T12:57:30.883Z,100410.61
2023-05-15T13:00:00.935Z,100408.09
2023-05-15T13:02:31.246Z,100401.75
2023-05-15T13:05:06.067Z,100399.07
2023-05-15T13:07:36.254Z,100394.46
2023-05-15T13:10:10.328Z,100392.56
2023-05-15T13:12:46.054Z,100389.14
2023-05-15T13:15:38.829Z,100383.48
2023-05-15T13:18:14.083Z,100382.45
2023-05-15T13:20:53.722Z,100379.02
2023-05-15T13:23:25.554Z,100368.41
2023-05-15T13:25:54.932Z,100366.28
2023-05-15T13:28:24.672Z,100364.00
2023-05-15T13:30:54.076Z,100362.83
2023-05-15T13:33:23.274Z,100365.31
2023-05-15T13:35:53.186Z,100365.00
2023-05-15T13:38:22.493Z,100367.63
2023-05-15T13:40:51.827Z,100365.32
2023-05-15T13:43:21.196Z,100371.38
2023-05-15T13:45:50.493Z,100369.91
2023-05-15T13:48:19.597Z,100367.10
2023-05-15T13:50:48.890Z,100361.61
2023-05-15T13:53:18.913Z,100354.85
2023-05-15T13:55:48.332Z,100354.41
2023-05-15T13:58:17.617Z,100359.88
2023-05-15T14:00:49.350Z,100364.52
2023-05-15T14:03:18.855Z,100358.20
2023-05-15T14:05:48.395Z,100358.58
2023-05-15T14:08:17.582Z,100354.67
2023-05-15T14:10:46.899Z,100352.66
2023-05-15T14:13:16.089Z,100348.35
2023-05-15T14:15:45.180Z,100343.04
2023-05-15T14:18:14.396Z,100337.79
2023-05-15T14:20:43.675Z,100332.30
2023-05-15T14:23:12.772Z,100325.77
2023-05-15T14:25:42.603Z,100326.52
2023-05-15T14:28:12.932Z,100323.83
2023-05-15T14:30:41.993Z,100318.16
2023-05-15T14:33:11.351Z,100320.61
2023-05-15T14:35:40.712Z,100319.59
2023-05-15T14:38:09.914Z,100319.30
2023-05-15T14:40:39.322Z,100327.50
2023-05-15T14:43:08.937Z,100330.24
2023-05-15T14:45:38.221Z,100336.54
2023-05-15T14:48:07.609Z,100343.55
2023-05-15T14:50:36.928Z,100351.54
2023-05-15T14:53:06.218Z,100352.96
2023-05-15T14:55:35.423Z,100351.42
2023-05-15T14:58:04.724Z,100348.89
2023-05-15T15:00:33.914Z,100337.96
2023-05-15T15:03:03.374Z,100340.97
2023-05-15T15:05:32.828Z,100349.03
2023-05-15T15:08:09.621Z,100354.67
2023-05-15T15:10:40.883Z,100366.88
2023-05-15T15:13:11.898Z,100361.34
2023-05-15T15:15:41.198Z,100356.30
2023-05-15T15:18:10.835Z,100354.34
2023-05-15T15:20:42.968Z,100347.16
2023-05-15T15:23:12.176Z,100338.22
2023-05-15T15:25:41.394Z,100343.65
2023-05-15T15:28:10.769Z,100343.35
2023-05-15T15:30:40.138Z,100335.91
2023-05-15T15:33:09.555Z,100336.02
2023-05-15T15:35:38.872Z,100329.92
2023-05-15T15:38:10.329Z,100334.98
2023-05-15T15:40:41.048Z,100340.59
2023-05-15T15:43:10.495Z,100339.52
2023-05-15T15:45:40.017Z,100337.74
2023-05-15T15:48:09.464Z,100343.47
2023-05-15T15:50:38.881Z,100343.48
2023-05-15T15:53:08.056Z,100343.72
2023-05-15T15:55:37.254Z,100341.45
2023-05-15T15:58:06.510Z,100341.73
2023-05-15T16:00:37.560Z,100351.16
2023-05-15T16:03:07.665Z,100351.60
2023-05-15T16:05:37.452Z,100351.34
2023-05-15T16:08:06.766Z,100350.54
2023-05-15T16:10:35.953Z,100347.77
2023-05-15T16:13:05.357Z,100353.23
2023-05-15T16:15:34.763Z,100351.84
2023-05-15T16:18:04.198Z,100362.53
2023-05-15T16:20:35.269Z,100365.23
2023-05-15T16:23:04.934Z,100368.77
2023-05-15T16:25:34.161Z,100372.73
2023-05-15T16:28:03.416Z,100370.39
2023-05-15T16:30:47.272Z,100379.73
2023-05-15T16:33:18.915Z,100378.61
2023-05-15T16:35:48.309Z,100373.89
2023-05-15T16:38:18.434Z,100375.02
2023-05-15T16:40:47.836Z,100371.48
2023-05-15T16:43:17.445Z,100373.48
2023-05-15T16:45:46.628Z,100373.02
2023-05-15T16:48:15.903Z,100368.91
2023-05-15T16:50:45.241Z,100359.83
2023-05-15T16:53:15.402Z,100357.94
2023-05-15T16:55:45.795Z,100354.24
2023-05-15T16:58:15.812Z,100346.20
2023-05-15T17:00:45.010Z,100337.23
2023-05-15T17:03:14.551Z,100337.64
2023-05-15T17:05:43.914Z,100332.97
2023-05-15T17:08:13.218Z,100319.25
2023-05-15T17:10:42.540Z,100335.53
2023-05-15T17:13:11.818Z,100358.42
2023-05-15T17:15:40.841Z,100376.52
2023-05-15T17:18:10.244Z,100386.17
2023-05-15T17:20:39.505Z,100385.01
2023-05-15T17:23:08.737Z,100381.20
2023-05-15T17:25:38.010Z,100374.66
2023-05-15T17:28:07.319Z,100368.44
2023-05-15T17:30:36.539Z,100364.33
2023-05-15T17:33:05.770Z,100365.98
2023-05-15T17:35:34.924Z,100380.69
2023-05-15T17:38:04.305Z,100397.98
2023-05-15T17:40:34.126Z,100409.81
2023-05-15T17:43:03.948Z,100407.31
2023-05-15T17:45:33.232Z,100390.27
2023-05-15T17:48:03.674Z,100382.80
2023-05-15T17:50:35.355Z,100390.02
2023-05-15T17:53:05.930Z,100386.34
2023-05-15T17:55:35.533Z,100353.26
2023-05-15T17:58:04.810Z,100319.02
2023-05-15T18:00:34.179Z,100288.36
2023-05-15T18:03:03.963Z,100291.83
2023-05-15T18:05:33.281Z,100318.20
2023-05-15T18:08:03.809Z,100352.96
2023-05-15T18:10:32.921Z,100378.95
2023-05-15T18:13:02.202Z,100407.67
2023-05-15T18:15:32.626Z,100427.52
2023-05-15T18:18:02.764Z,100445.69
2023-05-15T18:20:32.066Z,100453.63
2023-05-15T18:23:01.273Z,100450.66
2023-05-15T18:25:31.570Z,100446.97
2023-05-15T18:28:00.970Z,100438.90
2023-05-15T18:30:30.895Z,100444.77
2023-05-15T18:33:00.339Z,100447.06
2023-05-15T18:35:29.830Z,100443.49
2023-05-15T18:37:59.199Z,100442.48
2023-05-15T18:40:28.607Z,100437.85
2023-05-15T18:42:58.436Z,100447.11
2023-05-15T18:45:27.734Z,100452.48
2023-05-15T18:47:57.415Z,100450.67
2023-05-15T18:50:26.929Z,100454.67
2023-05-15T18:52:56.240Z,100448.08
2023-05-15T18:55:27.689Z,100440.10
2023-05-15T18:57:57.195Z,100438.48
2023-05-15T19:00:37.288Z,100433.05
2023-05-15T19:03:09.025Z,100431.70
2023-05-15T19:05:38.427Z,100428.84
2023-05-15T19:08:07.816Z,100426.39
2023-05-15T19:10:37.017Z,100421.33
2023-05-15T19:13:06.416Z,100424.16
2023-05-15T19:15:35.912Z,100424.85
2023-05-15T19:18:05.558Z,100422.99
2023-05-15T19:20:34.832Z,100420.19
2023-05-15T19:23:03.919Z,100419.30
2023-05-15T19:25:33.118Z,100421.50
2023-05-15T19:28:02.544Z,100428.61
2023-05-15T19:30:32.135Z,100428.11
2023-05-15T19:33:01.444Z,100428.70
2023-05-15T19:35:30.833Z,100429.90
2023-05-15T19:38:00.155Z,100435.24
2023-05-15T19:40:29.587Z,100436.85
2023-05-15T19:42:58.846Z,100442.75
2023-05-15T19:45:29.646Z,100441.41
2023-05-15T19:48:00.574Z,100448.46
2023-05-15T19:50:31.413Z,100448.46
2023-05-15T19:53:01.951Z,100448.95
2023-05-15T19:55:31.368Z,100456.83
2023-05-15T19:58:01.090Z,100457.88
2023-05-15T20:00:30.394Z,100461.83
2023-05-15T20:03:01.192Z,100457.29
2023-05-15T20:05:30.523Z,100462.67
2023-05-15T20:07:59.928Z,100450.41
2023-05-15T20:10:29.441Z,100447.48
2023-05-15T20:12:59.256Z,100443.59
2023-05-15T20:15:29.512Z,100441.52
2023-05-15T20:17:59.430Z,100444.31
2023-05-15T20:20:29.109Z,100443.33
2023-05-15T20:22:58.705Z,100443.00
2023-05-15T20:25:29.968Z,100438.56
2023-05-15T20:28:01.014Z,100437.61
2023-05-15T20:30:30.283Z,100441.77
2023-05-15T20:32:59.574Z,100451.05
2023-05-15T20:35:30.044Z,100453.17
2023-05-15T20:37:59.636Z,100455.91
2023-05-15T20:40:29.357Z,100460.66
2023-05-15T20:42:59.328Z,100459.80
2023-05-15T20:45:29.170Z,100460.54
2023-05-15T20:47:58.723Z,100470.19
2023-05-15T20:50:28.530Z,100476.20
2023-05-15T20:52:58.400Z,100483.59
2023-05-15T20:55:27.914Z,100484.33
2023-05-15T20:57:57.314Z,100489.56
2023-05-15T21:00:27.193Z,100487.42
2023-05-15T21:02:56.949Z,100482.86
2023-05-15T21:05:26.761Z,100481.99
2023-05-15T21:07:56.154Z,100478.88
2023-05-15T21:10:25.732Z,100479.33
2023-05-15T21:12:56.511Z,100479.89
2023-05-15T21:15:27.230Z,100479.23
2023-05-15T21:17:56.918Z,100475.90
2023-05-15T21:20:27.425Z,100478.55
2023-05-15T21:22:57.284Z,100478.55
2023-05-15T21:25:27.117Z,100482.20
2023-05-15T21:27:56.619Z,100488.42
2023-05-15T21:30:26.154Z,100495.85
2023-05-15T21:32:55.741Z,100495.09
2023-05-15T21:35:25.731Z,100487.16
2023-05-15T21:37:55.564Z,100486.73
2023-05-15T21:40:25.014Z,100484.05
2023-05-15T21:42:54.460Z,100474.98
2023-05-15T21:45:23.662Z,100467.17
2023-05-15T21:47:53.412Z,100464.98
2023-05-15T21:50:22.872Z,100457.33
2023-05-15T21:52:52.300Z,100465.41
2023-05-15T21:55:21.606Z,100462.77
2023-05-15T21:57:51.075Z,100461.40
2023-05-15T22:00:20.995Z,100457.23
2023-05-15T22:02:50.215Z,100452.51
2023-05-15T22:05:19.488Z,100450.80
2023-05-15T22:07:48.796Z,100444.00
2023-05-15T22:10:17.987Z,100436.58
2023-05-15T22:12:47.326Z,100435.48
2023-05-15T22:15:25.808Z,100433.62
2023-05-15T22:17:55.184Z,100425.65
2023-05-15T22:20:25.130Z,100415.98
2023-05-15T22:22:54.733Z,100408.85
2023-05-15T22:25:24.344Z,100408.58
2023-05-15T22:27:53.548Z,100403.80
2023-05-15T22:30:22.661Z,100401.77
2023-05-15T22:32:52.082Z,100394.48
2023-05-15T22:35:21.540Z,100386.17
2023-05-15T22:37:51.050Z,100382.95
2023-05-15T22:40:20.289Z,100375.30
2023-05-15T22:42:50.475Z,100367.73
2023-05-15T22:45:19.898Z,100351.80
2023-05-15T22:47:49.758Z,100347.59
2023-05-15T22:50:19.226Z,100344.67
2023-05-15T22:52:48.441Z,100342.74
2023-05-15T22:55:17.587Z,100345.33
2023-05-15T22:57:46.972Z,100353.73
2023-05-15T23:00:17.106Z,100354.34
2023-05-15T23:02:46.345Z,100358.45
2023-05-15T23:05:15.715Z,100353.40
2023-05-15T23:08:12.866Z,100351.27
2023-05-15T23:11:00.917Z,100350.22
2023-05-15T23:13:30.203Z,100348.69
2023-05-15T23:15:59.528Z,100349.79
2023-05-15T23:18:28.867Z,100352.15
2023-05-15T23:20:58.314Z,100352.98
2023-05-15T23:23:28.387Z,100353.64
2023-05-15T23:25:57.562Z,100353.08
2023-05-15T23:28:27.154Z,100354.02
2023-05-15T23:30:56.870Z,100351.27
2023-05-15T23:33:26.252Z,100349.19
2023-05-15T23:35:55.563Z,100348.42
2023-05-15T23:38:24.881Z,100344.69
2023-05-15T23:40:54.159Z,100339.53
2023-05-15T23:43:23.764Z,100337.99
2023-05-15T23:45:53.064Z,100338.05
2023-05-15T23:48:22.163Z,100338.81
2023-05-15T23:50:52.561Z,100333.65
2023-05-15T23:53:22.124Z,100339.03
2023-05-15T23:55:51.398Z,100333.33
2023-05-15T23:58:21.614Z,100324.27
